CYQU

Grande Prairie Airport

Grande Prairie, Alberta, Canada
METAR CYQU 230400Z 12006KT 25SM OVC031 03/M02 A2998 RMK SC8 SLP183
Observed Flight Rules
Sep-23 @ 04:00 UTC (44 minutes ago) Visual Flight Rules
Wind Visibility Clouds
120° at 6 knots 25 miles
Temperatures Readings
Current 3°C / 37°F
Dewpoint -2°C / 28°F
Humidity 70%
Altimeter 29.98" Hg
Pressure 1018.3 hPa
Elevation 669
METAR CYQU 230400Z 12006KT 25SM OVC031 03/M02 A2998 RMK SC8 SLP183
Observed Flight Rules
Sep-23 @ 04:00 UTC
(44 minutes ago)
VFR
Wind Visibility
120° at 6 knots 25 miles
Clouds
Temperature Dewpoint
3°C / 37°F -2°C / 28°F
Humidity Altimeter Pressure
70% 29.98" Hg 1018.3 hPa